.
WxDataArchive / Data Records for 2009-11-02
2009-11-01 November 2009 2009-11-03

Data Records for Monday, 02 November 2009

Time	Temp	Chill	HIndex	Humid	Dewpt	 Wind 	HiWind	WindDir	Rain 	Barom 
-----	----	-----	------	-----	-----	------	------	-------	-----	----- 
00:00	38.0	38.0	38.0	75	30.8	0	1	180	0.00	30.196 
00:05	38.2	38.2	38.2	75	31.0	0	1	180	0.00	30.196 
00:10	38.2	38.2	38.2	75	31.0	0	0	---	0.00	30.196 
00:15	38.2	38.2	38.2	74	30.7	0	0	---	0.00	30.202 
00:20	38.2	38.2	38.2	74	30.7	0	1	180	0.00	30.202 
00:25	38.2	38.2	38.2	74	30.7	0	1	180	0.00	30.202 
00:30	38.2	38.2	38.2	75	31.0	0	0	---	0.00	30.194 
00:35	38.3	38.3	38.3	74	30.8	0	1	180	0.00	30.194 
00:40	38.5	38.5	38.5	73	30.6	0	1	180	0.00	30.194 
00:45	38.8	38.8	38.8	73	30.9	0	1	158	0.00	30.193 
00:50	38.9	38.9	38.9	73	31.0	0	1	158	0.00	30.193 
00:55	38.9	38.9	38.9	73	31.0	0	1	158	0.00	30.193 
01:00	38.8	38.8	38.8	73	30.9	0	0	---	0.00	30.204 
01:05	38.5	38.5	38.5	74	30.9	0	0	---	0.00	30.204 
01:10	38.2	38.2	38.2	75	31.0	0	0	---	0.00	30.204 
01:15	37.8	37.8	37.8	75	30.6	0	0	---	0.00	30.207 
01:20	37.5	37.5	37.5	77	31.0	0	0	---	0.00	30.207 
01:25	37.2	37.2	37.2	77	30.7	0	0	---	0.00	30.207 
01:30	36.8	36.8	36.8	78	30.6	0	0	---	0.00	30.209 
01:35	36.6	36.6	36.6	78	30.4	0	0	---	0.00	30.209 
01:40	36.3	36.3	36.3	79	30.4	0	0	---	0.00	30.209 
01:45	36.0	36.0	36.0	80	30.4	0	1	158	0.00	30.224 
01:50	35.9	35.9	35.9	81	30.6	0	0	---	0.00	30.224 
01:55	35.8	35.8	35.8	81	30.6	0	0	---	0.00	30.224 
02:00	35.5	35.5	35.5	82	30.6	0	0	---	0.00	30.225 
02:05	35.2	35.2	35.2	82	30.3	0	0	---	0.00	30.225 
02:10	35.0	35.0	35.0	83	30.4	0	0	---	0.00	30.225 
02:15	34.7	34.7	34.7	84	30.4	0	0	---	0.00	30.223 
02:20	34.6	34.6	34.6	84	30.3	0	0	---	0.00	30.223 
02:25	34.4	34.4	34.4	84	30.1	0	0	---	0.00	30.223 
02:30	34.3	34.3	34.3	85	30.3	0	0	---	0.00	30.216 
02:35	34.1	34.1	34.1	86	30.4	0	0	---	0.00	30.216 
02:40	34.0	34.0	34.0	86	30.3	0	0	---	0.00	30.216 
02:45	34.0	34.0	34.0	87	30.5	0	0	---	0.00	30.210 
02:50	33.8	33.8	33.8	87	30.3	0	0	---	0.00	30.210 
02:55	33.8	33.8	33.8	87	30.3	0	0	---	0.00	30.210 
03:00	33.7	33.7	33.7	88	30.5	0	0	---	0.00	30.209 
03:05	33.5	33.5	33.5	88	30.3	0	0	---	0.00	30.209 
03:10	33.5	33.5	33.5	88	30.3	0	0	---	0.00	30.209 
03:15	33.5	33.5	33.5	88	30.3	0	0	---	0.00	30.211 
03:20	33.4	33.4	33.4	88	30.2	0	0	---	0.00	30.211 
03:25	33.2	33.2	33.2	88	30.0	0	0	---	0.00	30.211 
03:30	33.1	33.1	33.1	89	30.2	0	0	---	0.00	30.206 
03:35	33.1	33.1	33.1	89	30.2	0	0	---	0.00	30.206 
03:40	32.9	32.9	32.9	89	30.0	0	0	---	0.00	30.206 
03:45	32.9	32.9	32.9	89	30.0	0	0	---	0.00	30.212 
03:50	32.8	32.8	32.8	89	29.9	0	0	---	0.00	30.212 
03:55	32.8	32.8	32.8	89	29.9	0	0	---	0.00	30.212 
04:00	32.7	32.7	32.7	89	29.8	0	0	---	0.00	30.210 
04:05	32.5	32.5	32.5	90	29.9	0	0	---	0.00	30.210 
04:10	32.5	32.5	32.5	90	29.9	0	0	---	0.00	30.210 
04:15	32.4	32.4	32.4	90	29.8	0	0	---	0.00	30.214 
04:20	32.4	32.4	32.4	90	29.8	0	0	---	0.00	30.214 
04:25	32.2	32.2	32.2	90	29.6	0	0	---	0.00	30.214 
04:30	32.2	32.2	32.2	90	29.6	0	0	---	0.00	30.211 
04:35	32.2	32.2	32.2	90	29.6	0	0	---	0.00	30.211 
04:40	32.2	32.2	32.2	91	29.9	0	0	---	0.00	30.211 
04:45	32.2	32.2	32.2	91	29.9	0	0	---	0.00	30.199 
04:50	32.4	32.4	32.4	91	30.1	0	0	---	0.00	30.199 
04:55	32.4	32.4	32.4	91	30.1	0	0	---	0.00	30.199 
05:00	32.7	32.7	32.7	92	30.6	0	0	---	0.00	30.197 
05:05	32.8	32.8	32.8	92	30.7	0	0	---	0.00	30.197 
05:10	32.9	32.9	32.9	92	30.8	0	0	---	0.00	30.197 
05:15	33.2	33.2	33.2	92	31.1	0	0	---	0.00	30.200 
05:20	33.5	33.5	33.5	92	31.4	0	0	---	0.00	30.200 
05:25	34.1	34.1	34.1	92	32.0	0	1	158	0.00	30.200 
05:30	34.4	34.4	34.4	91	32.0	0	0	---	0.00	30.195 
05:35	34.9	34.9	34.9	91	32.5	0	1	158	0.00	30.195 
05:40	35.2	35.2	35.2	90	32.6	0	0	---	0.00	30.195 
05:45	35.5	35.5	35.5	89	32.6	0	0	---	0.00	30.190 
05:50	35.6	35.6	35.6	89	32.7	0	0	---	0.00	30.190 
05:55	35.9	35.9	35.9	89	33.0	0	0	---	0.00	30.190 
06:00	36.0	36.0	36.0	88	32.8	0	0	---	0.00	30.193 
06:05	36.3	36.3	36.3	88	33.1	0	0	---	0.00	30.193 
06:10	36.5	36.5	36.5	88	33.3	0	0	---	0.00	30.193 
06:15	36.6	36.6	36.6	88	33.4	0	0	---	0.00	30.196 
06:20	36.8	36.8	36.8	88	33.6	0	0	---	0.00	30.196 
06:25	36.9	36.9	36.9	87	33.4	0	0	---	0.00	30.196 
06:30	36.9	36.9	36.9	87	33.4	0	0	---	0.00	30.196 
06:35	37.0	37.0	37.0	87	33.5	0	0	---	0.00	30.196 
06:40	37.2	37.2	37.2	87	33.7	0	0	---	0.00	30.196 
06:45	37.2	37.2	37.2	86	33.4	0	0	---	0.00	30.198 
06:50	37.3	37.3	37.3	86	33.5	0	1	158	0.00	30.198 
06:55	37.5	37.5	37.5	85	33.4	0	0	---	0.00	30.198 
07:00	37.5	37.5	37.5	85	33.4	0	1	158	0.00	30.191 
07:05	37.8	37.8	37.8	85	33.7	0	0	---	0.00	30.191 
07:10	37.9	37.9	37.9	84	33.5	0	0	---	0.00	30.191 
07:15	38.0	38.0	38.0	85	33.9	0	0	---	0.00	30.191 
07:20	38.2	38.2	38.2	85	34.1	0	0	---	0.00	30.191 
07:25	38.2	38.2	38.2	84	33.8	0	1	158	0.00	30.191 
07:30	38.3	38.3	38.3	84	33.9	0	2	158	0.00	30.184 
07:35	38.6	38.6	38.6	83	33.9	0	2	158	0.00	30.184 
07:40	38.8	38.8	38.8	83	34.1	0	1	158	0.00	30.184 
07:45	38.9	38.9	38.9	83	34.2	0	0	---	0.00	30.194 
07:50	39.1	39.1	39.1	83	34.4	0	0	---	0.00	30.194 
07:55	39.3	39.3	39.3	82	34.3	0	1	158	0.00	30.194 
08:00	39.6	39.6	39.6	81	34.3	0	1	158	0.00	30.194 
08:05	40.1	40.1	40.1	79	34.1	0	1	90	0.00	30.194 
08:10	40.3	40.3	40.3	77	33.7	0	2	90	0.00	30.194 
08:15	40.6	40.6	40.6	77	34.0	0	1	90	0.00	30.194 
08:20	40.9	40.9	40.9	76	33.9	0	1	90	0.00	30.194 
08:25	41.2	41.2	41.2	76	34.2	0	1	90	0.00	30.194 
08:30	41.5	41.5	41.5	75	34.2	0	1	90	0.00	30.197 
08:35	41.6	41.6	41.6	75	34.3	0	1	90	0.00	30.197 
08:40	41.8	41.8	41.8	74	34.1	0	3	270	0.00	30.197 
08:45	42.1	42.1	42.1	73	34.1	0	3	270	0.00	30.196 
08:50	42.3	42.3	42.3	73	34.3	0	2	202	0.00	30.196 
08:55	42.5	42.5	42.5	72	34.1	0	1	180	0.00	30.196 
09:00	42.8	42.8	42.8	72	34.4	0	2	180	0.00	30.199 
09:05	43.1	43.1	43.1	71	34.3	0	3	90	0.00	30.199 
09:10	43.2	43.2	43.2	71	34.4	0	2	90	0.00	30.199 
09:15	43.5	43.5	43.5	71	34.7	0	1	90	0.00	30.196 
09:20	43.8	43.8	43.8	71	35.0	0	4	90	0.00	30.196 
09:25	44.1	44.1	44.1	71	35.3	0	4	90	0.00	30.196 
09:30	44.5	44.5	44.5	70	35.3	0	2	90	0.00	30.193 
09:35	44.9	44.9	44.9	68	35.0	1	2	90	0.00	30.193 
09:40	45.2	45.2	45.2	67	34.9	1	3	338	0.00	30.193 
09:45	45.7	45.7	45.7	67	35.4	1	5	248	0.00	30.186 
09:50	46.2	46.2	46.2	67	35.9	0	1	90	0.00	30.186 
09:55	46.7	46.7	46.7	65	35.6	1	6	90	0.00	30.186 
10:00	46.8	46.8	46.8	63	34.9	1	6	248	0.00	30.179 
10:05	46.7	46.7	46.7	63	34.8	1	4	270	0.00	30.179 
10:10	46.8	46.8	46.8	64	35.3	0	3	270	0.00	30.179 
10:15	47.0	47.0	47.0	65	35.9	1	2	270	0.00	30.178 
10:20	47.1	47.1	47.1	63	35.2	1	3	90	0.00	30.178 
10:25	47.4	47.4	47.4	64	35.8	1	3	90	0.00	30.178 
10:30	47.6	47.6	47.6	62	35.2	1	3	112	0.00	30.168 
10:35	47.9	47.9	47.9	64	36.3	1	5	112	0.00	30.168 
10:40	48.2	48.2	48.2	63	36.2	1	3	248	0.00	30.168 
10:45	48.6	48.6	48.6	62	36.2	1	3	112	0.00	30.168 
10:50	48.9	48.9	48.9	61	36.0	1	3	90	0.00	30.168 
10:55	49.2	49.2	49.2	62	36.7	1	2	248	0.00	30.168 
11:00	49.6	49.6	49.6	61	36.7	1	3	270	0.00	30.160 
11:05	50.1	50.1	50.1	61	37.2	1	3	270	0.00	30.160 
11:10	50.4	50.4	50.4	58	36.2	1	4	270	0.00	30.160 
11:15	50.8	50.8	50.8	58	36.6	2	7	248	0.00	30.160 
11:20	51.3	51.3	51.3	57	36.6	1	4	248	0.00	30.160 
11:25	52.0	52.0	52.0	57	37.2	1	4	90	0.00	30.160 
11:30	52.5	52.5	52.5	56	37.3	1	3	248	0.00	30.153 
11:35	52.6	52.6	52.6	55	36.9	2	6	292	0.00	30.153 
11:40	52.6	52.6	52.6	54	36.4	2	4	248	0.00	30.153 
11:45	52.5	52.5	52.5	54	36.3	2	5	270	0.00	30.143 
11:50	52.5	52.5	52.5	55	36.8	0	2	248	0.00	30.143 
11:55	52.6	52.6	52.6	56	37.4	0	2	0	0.00	30.143 
12:00	52.6	52.6	52.6	56	37.4	1	5	315	0.00	30.136 
12:05	52.5	52.5	52.5	54	36.3	2	5	248	0.00	30.136 
12:10	52.5	52.5	52.5	56	37.3	1	4	248	0.00	30.136 
12:15	52.2	52.2	52.2	57	37.4	1	4	112	0.00	30.124 
12:20	52.0	52.0	52.0	57	37.2	2	5	248	0.00	30.124 
12:25	51.9	51.9	51.9	59	38.0	1	2	292	0.00	30.124 
12:30	51.7	51.7	51.7	58	37.4	1	2	90	0.00	30.107 
12:35	51.9	51.9	51.9	60	38.5	0	2	90	0.00	30.107 
12:40	52.2	52.2	52.2	62	39.6	1	3	270	0.00	30.107 
12:45	52.2	52.2	52.2	60	38.7	1	4	90	0.00	30.096 
12:50	52.3	52.3	52.3	60	38.8	1	4	90	0.00	30.096 
12:55	52.3	52.3	52.3	60	38.8	1	3	292	0.00	30.096 
13:00	52.3	52.3	52.3	59	38.4	1	3	248	0.00	30.105 
13:05	52.5	52.5	52.5	58	38.2	1	3	248	0.00	30.105 
13:10	52.8	52.8	52.8	60	39.3	0	2	248	0.00	30.105 
13:15	53.3	53.3	53.3	57	38.5	1	3	270	0.00	30.103 
13:20	53.9	53.9	53.9	58	39.5	1	3	270	0.00	30.103 
13:25	54.2	54.2	54.2	55	38.4	1	4	248	0.00	30.103 
13:30	54.1	54.1	54.1	52	36.9	2	5	270	0.00	30.108 
13:35	53.9	53.9	53.9	52	36.7	2	5	270	0.00	30.108 
13:40	53.8	53.8	53.8	53	37.1	1	5	315	0.00	30.108 
13:45	53.6	53.6	53.6	53	36.9	1	3	248	0.00	30.109 
13:50	53.6	53.6	53.6	54	37.4	1	3	270	0.00	30.109 
13:55	53.8	53.8	53.8	54	37.5	1	4	248	0.00	30.109 
14:00	53.9	53.9	53.9	53	37.2	1	5	248	0.00	30.109 
14:05	54.1	54.1	54.1	52	36.9	2	5	248	0.00	30.109 
14:10	54.2	54.2	54.2	53	37.4	0	2	248	0.00	30.109 
14:15	54.4	54.4	54.4	53	37.6	1	5	248	0.00	30.102 
14:20	54.7	54.7	54.7	52	37.4	2	4	270	0.00	30.102 
14:25	55.3	55.3	55.3	50	37.0	3	7	248	0.00	30.102 
14:30	55.9	55.9	55.9	50	37.5	3	6	270	0.00	30.096 
14:35	56.2	56.2	56.2	48	36.8	3	10	248	0.00	30.096 
14:40	56.3	56.3	56.3	49	37.4	3	6	270	0.00	30.096 
14:45	56.5	56.5	56.5	49	37.6	2	7	248	0.00	30.094 
14:50	56.0	56.0	56.0	49	37.1	2	4	248	0.00	30.094 
14:55	55.9	55.9	55.9	52	38.5	1	5	248	0.00	30.094 
15:00	56.6	56.6	56.6	50	38.2	1	3	225	0.00	30.093 
15:05	56.9	56.9	56.9	49	37.9	2	6	248	0.00	30.093 
15:10	57.0	57.0	57.0	47	37.0	2	6	248	0.00	30.093 
15:15	56.9	56.9	56.9	48	37.4	2	7	248	0.00	30.089 
15:20	56.7	56.7	56.7	48	37.2	3	7	248	0.00	30.089 
15:25	56.9	56.9	56.9	49	37.9	2	9	270	0.00	30.089 
15:30	56.7	56.7	56.7	50	38.3	2	4	270	0.00	30.094 
15:35	56.9	56.9	56.9	50	38.5	2	6	248	0.00	30.094 
15:40	56.7	56.7	56.7	50	38.3	2	7	248	0.00	30.094 
15:45	56.7	56.7	56.7	50	38.3	2	6	248	0.00	30.094 
15:50	56.9	56.9	56.9	50	38.5	2	5	248	0.00	30.094 
15:55	56.9	56.9	56.9	49	37.9	2	6	248	0.00	30.094 
16:00	57.0	57.0	57.0	50	38.5	1	5	248	0.00	30.091 
16:05	57.0	57.0	57.0	50	38.5	1	9	248	0.00	30.091 
16:10	57.0	57.0	57.0	50	38.5	2	8	248	0.00	30.091 
16:15	56.9	56.9	56.9	50	38.5	1	5	248	0.00	30.088 
16:20	56.9	56.9	56.9	50	38.5	2	5	248	0.00	30.088 
16:25	56.7	56.7	56.7	50	38.3	2	6	248	0.00	30.088 
16:30	56.5	56.5	56.5	51	38.6	1	5	248	0.00	30.094 
16:35	56.5	56.5	56.5	51	38.6	1	3	248	0.00	30.094 
16:40	56.3	56.3	56.3	51	38.4	1	4	248	0.00	30.094 
16:45	56.2	56.2	56.2	51	38.3	1	4	248	0.00	30.101 
16:50	56.0	56.0	56.0	52	38.6	1	3	248	0.00	30.101 
16:55	55.9	55.9	55.9	52	38.5	0	2	270	0.00	30.101 
17:00	55.7	55.7	55.7	53	38.8	0	2	270	0.00	30.102 
17:05	55.4	55.4	55.4	53	38.6	0	2	248	0.00	30.102 
17:10	55.3	55.3	55.3	54	38.9	0	1	248	0.00	30.102 
17:15	55.0	55.0	55.0	54	38.7	0	1	248	0.00	30.101 
17:20	54.5	54.5	54.5	54	38.2	0	1	248	0.00	30.101 
17:25	54.2	54.2	54.2	55	38.4	0	0	---	0.00	30.101 
17:30	53.9	53.9	53.9	56	38.6	0	0	---	0.00	30.104 
17:35	53.5	53.5	53.5	57	38.6	0	0	---	0.00	30.104 
17:40	52.9	52.9	52.9	58	38.5	0	0	---	0.00	30.104 
17:45	52.3	52.3	52.3	59	38.4	0	0	---	0.00	30.103 
17:50	51.7	51.7	51.7	60	38.3	0	0	---	0.00	30.103 
17:55	51.1	51.1	51.1	61	38.1	0	0	---	0.00	30.103 
18:00	50.5	50.5	50.5	62	38.0	0	0	---	0.00	30.111 
18:05	49.9	49.9	49.9	64	38.2	0	0	---	0.00	30.111 
18:10	49.5	49.5	49.5	64	37.8	0	0	---	0.00	30.111 
18:15	48.9	48.9	48.9	66	38.0	0	0	---	0.00	30.113 
18:20	48.5	48.5	48.5	67	38.0	0	0	---	0.00	30.113 
18:25	47.9	47.9	47.9	69	38.2	0	0	---	0.00	30.113 
18:30	47.4	47.4	47.4	70	38.1	0	0	---	0.00	30.118 
18:35	47.0	47.0	47.0	71	38.1	0	0	---	0.00	30.118 
18:40	46.7	46.7	46.7	72	38.2	0	0	---	0.00	30.118 
18:45	46.4	46.4	46.4	73	38.2	0	0	---	0.00	30.120 
18:50	46.2	46.2	46.2	74	38.4	0	0	---	0.00	30.120 
18:55	46.2	46.2	46.2	75	38.7	0	0	---	0.00	30.120 
19:00	46.2	46.2	46.2	76	39.1	0	0	---	0.00	30.129 
19:05	47.4	47.4	47.4	76	40.2	1	5	315	0.00	30.129 
19:10	49.5	49.5	49.5	72	40.9	1	3	315	0.00	30.129 
19:15	50.4	50.4	50.4	70	41.0	0	1	315	0.00	30.139 
19:20	50.7	50.7	50.7	69	40.9	0	1	315	0.00	30.139 
19:25	50.7	50.7	50.7	70	41.3	0	2	315	0.00	30.139 
19:30	50.7	50.7	50.7	71	41.6	1	3	315	0.00	30.140 
19:35	50.7	50.7	50.7	72	42.0	1	2	315	0.00	30.140 
19:40	50.5	50.5	50.5	73	42.2	0	2	315	0.00	30.140 
19:45	50.5	50.5	50.5	73	42.2	1	4	315	0.00	30.140 
19:50	50.7	50.7	50.7	73	42.4	1	3	315	0.00	30.140 
19:55	50.5	50.5	50.5	74	42.5	1	2	315	0.00	30.140 
20:00	50.2	50.2	50.2	74	42.2	0	2	315	0.00	30.141 
20:05	50.1	50.1	50.1	75	42.5	0	2	315	0.00	30.141 
20:10	49.8	49.8	49.8	75	42.2	0	1	315	0.00	30.141 
20:15	49.6	49.6	49.6	76	42.3	1	2	315	0.00	30.140 
20:20	49.5	49.5	49.5	77	42.6	1	4	315	0.00	30.140 
20:25	49.4	49.4	49.4	77	42.5	0	2	315	0.00	30.140 
20:30	49.4	49.4	49.4	77	42.5	1	3	315	0.00	30.147 
20:35	49.1	49.1	49.1	77	42.2	1	5	315	0.00	30.147 
20:40	48.9	48.9	48.9	77	42.0	1	3	338	0.00	30.147 
20:45	48.6	48.6	48.6	77	41.7	1	3	338	0.00	30.151 
20:50	48.5	48.5	48.5	77	41.6	1	3	338	0.00	30.151 
20:55	48.2	48.2	48.2	78	41.7	0	1	338	0.00	30.151 
21:00	48.0	48.0	48.0	78	41.5	1	3	315	0.00	30.157 
21:05	47.7	47.7	47.7	78	41.2	1	2	315	0.00	30.157 
21:10	47.6	47.6	47.6	78	41.1	0	4	270	0.00	30.157 
21:15	47.4	47.4	47.4	79	41.2	0	1	270	0.00	30.165 
21:20	47.3	47.3	47.3	79	41.1	0	1	270	0.00	30.165 
21:25	47.0	47.0	47.0	80	41.2	1	4	292	0.00	30.165 
21:30	46.7	46.7	46.7	80	40.9	1	2	292	0.00	30.168 
21:35	46.5	46.5	46.5	80	40.7	0	2	292	0.00	30.168 
21:40	46.2	46.2	46.2	81	40.7	0	2	292	0.00	30.168 
21:45	46.1	46.1	46.1	81	40.6	0	3	315	0.00	30.171 
21:50	45.8	45.8	45.8	82	40.6	1	3	292	0.00	30.171 
21:55	45.7	45.7	45.7	82	40.5	1	3	292	0.00	30.171 
22:00	45.4	45.4	45.4	82	40.2	1	5	338	0.00	30.178 
22:05	45.4	45.4	45.4	82	40.2	1	2	315	0.00	30.178 
22:10	45.1	45.1	45.1	82	39.9	0	2	315	0.00	30.178 
22:15	44.9	44.9	44.9	82	39.7	0	1	315	0.00	30.177 
22:20	44.6	44.6	44.6	82	39.4	0	1	315	0.00	30.177 
22:25	44.5	44.5	44.5	82	39.4	0	1	315	0.00	30.177 
22:30	44.3	44.3	44.3	83	39.5	0	1	315	0.00	30.182 
22:35	44.2	44.2	44.2	83	39.4	0	1	315	0.00	30.182 
22:40	44.1	44.1	44.1	83	39.3	0	1	315	0.00	30.182 
22:45	43.9	43.9	43.9	83	39.1	0	1	315	0.00	30.184 
22:50	43.6	43.6	43.6	83	38.8	0	1	315	0.00	30.184 
22:55	43.3	43.3	43.3	83	38.5	0	1	315	0.00	30.184 
23:00	43.2	43.2	43.2	84	38.7	0	1	315	0.00	30.186 
23:05	42.9	42.9	42.9	84	38.4	0	1	315	0.00	30.186 
23:10	42.8	42.8	42.8	84	38.3	0	0	---	0.00	30.186 
23:15	42.6	42.6	42.6	84	38.1	0	0	---	0.00	30.182 
23:20	42.3	42.3	42.3	84	37.8	0	0	---	0.00	30.182 
23:25	42.1	42.1	42.1	84	37.6	0	0	---	0.00	30.182 
23:30	41.6	41.6	41.6	85	37.4	0	0	---	0.00	30.183 
23:35	41.5	41.5	41.5	86	37.6	0	1	315	0.00	30.183 
23:40	41.3	41.3	41.3	86	37.4	0	0	---	0.00	30.183 
23:45	41.2	41.2	41.2	87	37.6	0	0	---	0.00	30.184 
23:50	41.1	41.1	41.1	87	37.5	0	0	---	0.00	30.184 
23:55	40.9	40.9	40.9	87	37.3	0	0	---	0.00	30.184 

CoCoRaHS
IN-AL-39
A2 Web Hosting
Creative Commons License
GoDaddy
search engine by freefind advanced

loaded 2018-11-18 12:17:09 • last modified 2010-11-18 10:43:29
Privacy PolicyDisclaimer
• wx.awcolley.com is powered by PmWiki v.2002016 •
• all content (unless otherwise noted) © 2018 A W Colley